Time;durP1;ratioP1;P1;durP2;ratioP2;P2;SDS_P1;SDS_P2;PMS_P1;PMS_P2;Temp;Humidity;BMP_temperature;BMP_pressure;BME280_temperature;BME280_humidity;BME280_pressure;Samples;Min_cycle;Max_cycle;Signal;HPM_P1;HPM_P2
2022/06/18 00:00:56;;;;;;;4.00;2.90;;;;;;;22.71;65.26;99810.34;5010849;28;20126;-83
2022/06/18 00:03:23;;;;;;;5.05;2.30;;;;;;;22.45;65.72;99806.63;5010363;28;20562;-83
2022/06/18 00:05:53;;;;;;;6.68;3.55;;;;;;;22.61;65.04;99802.00;5010977;28;20042;-83
2022/06/18 00:08:23;;;;;;;8.18;3.90;;;;;;;22.45;65.75;99812.00;5009896;28;20112;-84
2022/06/18 00:13:48;;;;;;;4.97;3.08;;;;;;;22.66;64.89;99807.06;4969093;28;20040;-83
2022/06/18 00:16:17;;;;;;;4.18;3.15;;;;;;;22.38;65.83;99781.94;5014255;28;20117;-84
2022/06/18 00:18:43;;;;;;;4.78;3.28;;;;;;;22.19;65.93;99774.13;5013843;28;20041;-84
2022/06/18 00:21:15;;;;;;;5.20;3.33;;;;;;;22.31;66.43;99796.75;4996515;28;20041;-84
2022/06/18 00:23:41;;;;;;;4.70;3.00;;;;;;;22.48;63.75;99758.91;5014255;28;20033;-84
2022/06/18 00:26:06;;;;;;;5.50;3.25;;;;;;;22.76;63.46;99802.00;4996057;28;20520;-84
2022/06/18 00:28:32;;;;;;;4.15;2.70;;;;;;;22.84;63.25;99791.59;5014056;28;20528;-84
2022/06/18 00:30:59;;;;;;;4.55;3.10;;;;;;;22.77;63.30;99790.25;5014446;28;20081;-84
2022/06/18 00:33:26;;;;;;;5.30;3.22;;;;;;;22.90;63.15;99793.88;5013334;28;20112;-84
2022/06/18 00:35:58;;;;;;;6.70;3.35;;;;;;;22.60;63.36;99762.66;5014200;28;20042;-84
2022/06/18 00:38:30;;;;;;;4.82;3.08;;;;;;;22.49;62.97;99754.38;5009974;28;20030;-84
2022/06/18 00:40:56;;;;;;;4.57;3.30;;;;;;;22.44;63.47;99748.44;4994595;28;20034;-84
2022/06/18 00:43:35;;;;;;;6.38;3.13;;;;;;;22.63;63.01;99770.50;5009334;28;20041;-84
2022/06/18 00:46:31;;;;;;;5.85;3.15;;;;;;;22.82;62.81;99789.00;4995287;28;20412;-84
2022/06/18 00:49:06;;;;;;;4.50;2.50;;;;;;;22.79;62.61;99775.75;4993777;28;20031;-84
2022/06/18 00:51:44;;;;;;;5.85;3.22;;;;;;;22.60;63.34;99759.97;4995063;28;20571;-84
2022/06/18 00:54:23;;;;;;;4.70;2.95;;;;;;;22.59;64.34;99776.19;4998959;28;20034;-83
2022/06/18 00:56:58;;;;;;;4.63;2.80;;;;;;;22.50;64.55;99756.97;5010987;28;20042;-84
2022/06/18 00:59:48;;;;;;;5.35;3.13;;;;;;;22.34;65.43;99762.47;4994007;28;20038;-85
2022/06/18 01:02:21;;;;;;;6.03;4.18;;;;;;;22.27;65.42;99744.97;4993121;28;20034;-85
2022/06/18 01:04:47;;;;;;;4.32;2.88;;;;;;;22.11;65.50;99712.84;4994289;28;20112;-84
2022/06/18 01:07:30;;;;;;;4.75;2.90;;;;;;;21.86;66.65;99708.13;4994339;28;20034;-84
2022/06/18 01:09:57;;;;;;;4.95;3.40;;;;;;;22.14;66.29;99746.72;4998328;28;20026;-84
2022/06/18 01:12:24;;;;;;;5.38;4.00;;;;;;;21.86;66.29;99704.56;5013112;28;20167;-84
2022/06/18 01:15:01;;;;;;;4.13;3.25;;;;;;;22.09;65.51;99738.06;5001167;28;20034;-84
2022/06/18 01:17:29;;;;;;;7.05;3.40;;;;;;;22.09;65.43;99743.41;4994846;28;20030;-84
2022/06/18 01:19:54;;;;;;;4.85;2.95;;;;;;;21.91;65.14;99708.69;4996075;28;20523;-84
2022/06/18 01:22:36;;;;;;;6.05;3.72;;;;;;;21.73;65.63;99718.75;4984644;28;20042;-84
2022/06/18 01:25:06;;;;;;;3.35;2.67;;;;;;;21.95;65.09;99714.72;4993474;28;20173;-84
2022/06/18 01:27:33;;;;;;;4.00;2.47;;;;;;;22.11;64.66;99726.25;4992339;28;20064;-84
2022/06/18 01:29:59;;;;;;;5.22;2.70;;;;;;;22.05;65.49;99720.41;4976919;28;20486;-84
2022/06/18 01:32:24;;;;;;;4.43;3.45;;;;;;;22.03;65.15;99700.81;4997865;28;20120;-84
2022/06/18 01:34:51;;;;;;;4.90;3.15;;;;;;;22.30;64.85;99735.84;4999679;28;20412;-84
2022/06/18 01:37:17;;;;;;;4.80;3.13;;;;;;;22.11;64.09;99690.50;5012301;28;20041;-84
2022/06/18 01:39:46;;;;;;;3.17;2.50;;;;;;;21.96;63.92;99682.41;5013304;28;20276;-84
2022/06/18 01:42:36;;;;;;;4.93;3.13;;;;;;;22.28;63.68;99724.34;5012542;28;20030;-84
2022/06/18 01:45:15;;;;;;;10.18;4.05;;;;;;;22.02;64.33;99701.81;5013399;28;20030;-84
2022/06/18 01:47:47;;;;;;;3.97;3.05;;;;;;;21.87;63.86;99703.63;5012847;28;20510;-84
2022/06/18 01:50:38;;;;;;;5.55;3.55;;;;;;;21.82;64.53;99742.34;5012232;28;20036;-84
2022/06/18 01:53:27;;;;;;;5.72;3.65;;;;;;;21.89;64.98;99750.03;5012620;28;20018;-84
2022/06/18 01:56:21;;;;;;;5.05;3.22;;;;;;;21.51;67.39;99734.44;5012578;28;20025;-84
2022/06/18 01:58:53;;;;;;;4.15;3.13;;;;;;;21.68;66.90;99746.84;5009517;28;20053;-84
2022/06/18 02:01:24;;;;;;;7.60;3.10;;;;;;;21.58;66.67;99735.78;5012320;28;20133;-84
2022/06/18 02:03:55;;;;;;;9.38;5.10;;;;;;;21.69;65.99;99727.97;5012615;28;20057;-83
2022/06/18 02:06:21;;;;;;;4.25;2.78;;;;;;;21.78;65.69;99721.16;5012277;28;20112;-84
2022/06/18 02:08:47;;;;;;;5.28;3.33;;;;;;;21.97;65.76;99748.59;5012629;28;20118;-84
2022/06/18 02:11:16;;;;;;;4.82;3.33;;;;;;;21.98;66.33;99747.66;5011983;28;20033;-84
2022/06/18 02:13:50;;;;;;;5.50;3.10;;;;;;;22.02;66.85;99737.56;5011531;28;20038;-84
2022/06/18 02:16:19;;;;;;;5.53;3.40;;;;;;;21.84;67.68;99725.28;5012106;28;20037;-84
2022/06/18 02:18:47;;;;;;;6.38;4.22;;;;;;;21.83;67.90;99727.13;5011221;28;20030;-83
2022/06/18 02:21:14;;;;;;;5.93;2.85;;;;;;;21.76;68.14;99715.88;5010871;28;20514;-84
2022/06/18 02:23:40;;;;;;;5.13;4.07;;;;;;;21.74;68.10;99695.47;5010770;28;20131;-84
2022/06/18 02:26:07;;;;;;;5.32;3.85;;;;;;;21.87;67.99;99725.09;5011276;28;20097;-84
2022/06/18 02:28:41;;;;;;;5.72;3.92;;;;;;;21.89;67.72;99709.75;5011721;28;20048;-84
2022/06/18 02:31:14;;;;;;;6.90;4.05;;;;;;;22.00;67.85;99736.81;5011372;28;20033;-84
2022/06/18 02:33:52;;;;;;;6.18;3.38;;;;;;;22.03;67.28;99742.00;5010124;28;20393;-84
2022/06/18 02:36:29;;;;;;;5.13;3.50;;;;;;;21.92;67.18;99739.97;4998217;28;20077;-83
2022/06/18 02:38:59;;;;;;;8.57;3.58;;;;;;;21.32;66.38;99738.19;4974752;28;20428;-83
2022/06/18 02:41:27;;;;;;;6.15;2.38;;;;;;;21.47;66.78;99752.47;4993771;28;20444;-84
2022/06/18 02:43:53;;;;;;;5.82;3.08;;;;;;;21.73;66.64;99739.38;4999890;28;20117;-83
2022/06/18 02:46:19;;;;;;;4.90;3.00;;;;;;;21.55;66.32;99701.94;4992380;28;20034;-84
2022/06/18 02:48:45;;;;;;;3.50;3.00;;;;;;;21.69;65.74;99733.31;4990763;28;20065;-84
2022/06/18 02:51:13;;;;;;;4.63;2.95;;;;;;;21.58;65.96;99747.38;4991459;28;20509;-84
2022/06/18 02:53:39;;;;;;;3.60;2.35;;;;;;;21.42;64.95;99747.38;4991943;28;20116;-83
2022/06/18 02:56:06;;;;;;;5.32;2.35;;;;;;;21.27;65.07;99727.72;5005084;28;20479;-83
2022/06/18 02:58:41;;;;;;;3.42;2.30;;;;;;;21.33;64.59;99750.63;5011602;28;20030;-84
2022/06/18 03:01:11;;;;;;;4.82;2.85;;;;;;;21.18;64.75;99733.63;4994495;28;20085;-85
2022/06/18 03:03:41;;;;;;;6.90;3.38;;;;;;;21.46;64.49;99742.72;4974923;28;20394;-83
2022/06/18 03:06:08;;;;;;;4.75;2.72;;;;;;;21.34;64.29;99735.41;5009828;28;20026;-82
2022/06/18 03:08:35;;;;;;;2.60;1.90;;;;;;;21.56;63.84;99748.44;5011341;28;20045;-83
2022/06/18 03:13:45;;;;;;;3.45;1.63;;;;;;;21.67;64.53;99756.69;4991384;28;20125;-84
2022/06/18 03:16:14;;;;;;;3.05;2.55;;;;;;;21.71;64.02;99752.03;5008734;28;20045;-83
2022/06/18 03:18:41;;;;;;;3.92;2.22;;;;;;;21.55;64.44;99761.00;4993924;28;20138;-83
2022/06/18 03:21:26;;;;;;;4.40;2.35;;;;;;;21.76;63.80;99753.44;5002422;28;20109;-84
2022/06/18 03:23:53;;;;;;;3.75;2.65;;;;;;;21.84;63.73;99741.41;4991658;28;20039;-84
2022/06/18 03:26:19;;;;;;;5.07;3.38;;;;;;;21.88;63.84;99754.53;4991334;28;20034;-85
2022/06/18 03:28:45;;;;;;;6.03;3.20;;;;;;;21.74;63.67;99722.31;4991869;28;20497;-84
2022/06/18 03:31:12;;;;;;;4.13;2.83;;;;;;;21.85;64.28;99762.78;4998887;28;20022;-84
2022/06/18 03:33:38;;;;;;;7.40;3.10;;;;;;;21.71;64.81;99762.75;4979330;28;20041;-84
2022/06/18 03:36:05;;;;;;;3.15;2.38;;;;;;;21.94;64.27;99761.38;5007476;28;20095;-84
2022/06/18 03:38:32;;;;;;;4.10;2.65;;;;;;;21.86;64.24;99758.25;5011120;28;20483;-84
2022/06/18 03:40:57;;;;;;;2.92;2.53;;;;;;;22.00;64.38;99761.84;5011283;28;20041;-83
2022/06/18 03:43:25;;;;;;;4.18;2.72;;;;;;;21.84;64.32;99736.03;5011035;28;20030;-84
2022/06/18 03:45:59;;;;;;;4.13;2.75;;;;;;;21.93;65.04;99767.69;5014863;28;20073;-83
2022/06/18 03:48:41;;;;;;;4.88;3.13;;;;;;;21.76;66.14;99779.44;5014574;28;20030;-83
2022/06/18 03:51:07;;;;;;;3.88;2.10;;;;;;;21.84;66.50;99773.63;5014231;28;20034;-83
2022/06/18 03:53:33;;;;;;;4.38;2.88;;;;;;;21.75;66.44;99762.47;5014690;28;20038;-84
2022/06/18 03:55:58;;;;;;;3.80;2.78;;;;;;;21.55;67.21;99754.75;5014632;28;20420;-84
2022/06/18 03:58:24;;;;;;;3.53;2.22;;;;;;;21.34;67.55;99722.84;5014617;28;20124;-83
2022/06/18 04:00:50;;;;;;;5.35;2.85;;;;;;;21.53;68.23;99749.47;5013030;28;20033;-84
2022/06/18 04:03:16;;;;;;;7.00;4.57;;;;;;;21.61;68.30;99755.25;5014374;28;20040;-84
2022/06/18 04:05:42;;;;;;;5.43;3.22;;;;;;;21.57;67.71;99736.75;5009500;28;20041;-84
2022/06/18 04:08:11;;;;;;;11.80;4.03;;;;;;;21.96;67.25;99754.06;5006908;28;20030;-85
2022/06/18 04:10:37;;;;;;;6.15;3.97;;;;;;;22.07;66.51;99770.38;5014484;28;20030;-84
2022/06/18 04:13:02;;;;;;;6.38;3.95;;;;;;;21.99;67.28;99778.06;5014790;28;20584;-84
2022/06/18 04:15:28;;;;;;;6.22;3.80;;;;;;;21.60;68.14;99742.78;5013887;28;20037;-84
2022/06/18 04:17:53;;;;;;;6.13;3.85;;;;;;;21.71;68.12;99770.81;5013694;28;20121;-84
2022/06/18 04:20:23;;;;;;;5.32;2.88;;;;;;;21.61;68.47;99763.31;5013379;28;20026;-84
2022/06/18 04:22:49;;;;;;;6.32;3.20;;;;;;;21.73;68.96;99783.16;5013793;28;20061;-84
2022/06/18 04:25:15;;;;;;;5.38;3.20;;;;;;;21.84;68.37;99769.09;5013950;28;20034;-84
2022/06/18 04:27:41;;;;;;;9.65;4.55;;;;;;;21.86;68.33;99760.94;5011711;28;20110;-83
2022/06/18 04:30:08;;;;;;;6.00;4.07;;;;;;;21.90;67.12;99744.56;5004769;28;20100;-84
2022/06/18 04:32:35;;;;;;;5.18;3.25;;;;;;;22.02;67.68;99777.88;5013068;28;20526;-85
2022/06/18 04:35:02;;;;;;;5.72;3.85;;;;;;;22.28;66.96;99781.63;5013621;28;20042;-84
2022/06/18 04:37:27;;;;;;;4.22;3.30;;;;;;;22.47;65.04;99785.88;5008607;28;20089;-85
2022/06/18 04:39:53;;;;;;;6.30;3.65;;;;;;;22.46;65.16;99747.41;4994850;28;20030;-84
2022/06/18 04:42:18;;;;;;;5.45;3.10;;;;;;;22.67;64.55;99793.53;4994625;28;20046;-85
2022/06/18 04:44:43;;;;;;;7.88;4.35;;;;;;;22.68;64.51;99783.66;4993797;28;20027;-84
2022/06/18 04:47:09;;;;;;;4.90;3.60;;;;;;;22.65;64.57;99781.16;4992478;28;20118;-84
2022/06/18 04:49:35;;;;;;;6.95;3.58;;;;;;;22.74;64.01;99764.44;4991862;28;20031;-82
2022/06/18 04:52:00;;;;;;;5.88;4.50;;;;;;;22.88;63.84;99787.75;4991930;28;20030;-82
2022/06/18 04:54:26;;;;;;;7.55;3.42;;;;;;;23.17;63.45;99793.97;4993780;28;20057;-82
2022/06/18 04:56:51;;;;;;;6.80;3.28;;;;;;;23.44;62.05;99779.63;4990950;28;20418;-82
2022/06/18 04:59:16;;;;;;;5.00;2.90;;;;;;;23.92;61.04;99800.66;4993136;28;20033;-82
2022/06/18 05:01:43;;;;;;;5.70;3.67;;;;;;;23.98;60.21;99775.97;4993460;28;20076;-81
2022/06/18 05:04:09;;;;;;;3.70;2.38;;;;;;;23.87;59.75;99763.25;4993660;28;20030;-82
2022/06/18 05:06:35;;;;;;;4.90;3.30;;;;;;;24.42;59.33;99789.97;4993890;28;20034;-83
2022/06/18 05:09:00;;;;;;;5.65;3.22;;;;;;;24.70;58.66;99788.91;4993639;28;20412;-83
2022/06/18 05:11:26;;;;;;;5.50;2.58;;;;;;;24.42;57.02;99787.28;4994068;28;20069;-83
2022/06/18 05:13:51;;;;;;;6.18;3.55;;;;;;;24.31;57.69;99793.44;4993411;28;20034;-84
2022/06/18 05:16:17;;;;;;;4.28;3.15;;;;;;;24.27;55.39;99808.13;4993967;28;20041;-84
2022/06/18 05:18:45;;;;;;;4.18;2.25;;;;;;;24.09;55.45;99812.97;4993577;28;20485;-84
2022/06/18 05:21:10;;;;;;;3.72;2.45;;;;;;;23.82;56.37;99786.94;5004801;28;20139;-85
2022/06/18 05:23:36;;;;;;;3.00;2.40;;;;;;;23.98;56.23;99819.09;5012543;28;20089;-84
2022/06/18 05:26:02;;;;;;;4.55;2.60;;;;;;;24.02;57.46;99803.56;5004793;28;20038;-85
2022/06/18 05:28:28;;;;;;;2.30;1.75;;;;;;;24.04;57.08;99804.34;4993651;28;20041;-84
2022/06/18 05:30:54;;;;;;;3.97;2.55;;;;;;;24.10;55.98;99795.81;4993651;28;20386;-84
2022/06/18 05:33:20;;;;;;;3.58;2.42;;;;;;;24.29;56.23;99812.41;4999383;28;20044;-84
2022/06/18 05:35:46;;;;;;;8.43;3.67;;;;;;;24.54;55.66;99824.16;5007296;28;20060;-84
2022/06/18 05:38:18;;;;;;;3.55;2.22;;;;;;;24.25;54.36;99807.34;5013366;28;20057;-84
2022/06/18 05:40:44;;;;;;;5.28;3.45;;;;;;;24.30;55.67;99819.53;5012923;28;20121;-87
2022/06/18 05:43:10;;;;;;;3.58;2.78;;;;;;;24.19;55.48;99792.50;5013391;28;20040;-85
2022/06/18 05:45:36;;;;;;;5.63;2.85;;;;;;;24.36;55.52;99812.88;5012894;28;20033;-85
2022/06/18 05:48:01;;;;;;;4.18;2.05;;;;;;;24.21;54.90;99819.34;5012267;28;20107;-85
2022/06/18 05:50:27;;;;;;;3.80;2.22;;;;;;;24.03;54.96;99802.59;5012323;28;20034;-85
2022/06/18 05:52:52;;;;;;;3.20;2.65;;;;;;;24.03;55.64;99803.47;5011997;28;20116;-84
2022/06/18 05:55:20;;;;;;;3.13;2.53;;;;;;;23.91;55.83;99804.31;5012287;28;20549;-86
2022/06/18 05:57:53;;;;;;;3.75;2.17;;;;;;;23.92;54.81;99797.97;5010626;28;20030;-87
2022/06/18 06:00:21;;;;;;;4.22;2.67;;;;;;;24.09;55.89;99811.13;5011153;28;20038;-86
2022/06/18 06:02:47;;;;;;;4.70;2.75;;;;;;;23.91;54.81;99796.22;5010904;28;20550;-86
2022/06/18 06:05:12;;;;;;;2.97;2.35;;;;;;;24.13;55.45;99817.16;5011871;28;20034;-87
2022/06/18 06:07:38;;;;;;;6.57;3.65;;;;;;;24.33;54.99;99826.56;5012053;28;20036;-86
2022/06/18 06:13:09;;;;;;;3.60;2.50;;;;;;;24.71;53.78;99814.88;5006136;28;20483;-88
2022/06/18 06:15:35;;;;;;;4.43;2.80;;;;;;;24.84;52.97;99831.06;5011814;28;20025;-86
2022/06/18 06:18:00;;;;;;;4.88;2.40;;;;;;;24.81;52.65;99821.34;5012121;28;20125;-86
2022/06/18 06:20:30;;;;;;;5.18;2.60;;;;;;;25.41;53.19;99826.03;5012045;28;20033;-86
2022/06/18 06:22:55;;;;;;;4.43;2.75;;;;;;;25.26;51.38;99811.84;5012093;28;20531;-86
2022/06/18 06:25:21;;;;;;;5.20;3.55;;;;;;;25.17;51.43;99814.22;5011783;28;20105;-87
2022/06/18 06:27:46;;;;;;;5.05;2.67;;;;;;;25.29;50.65;99819.75;5010609;28;20209;-89
2022/06/18 06:30:13;;;;;;;4.10;2.25;;;;;;;24.91;51.93;99820.69;5012464;28;20040;-89
2022/06/18 06:32:39;;;;;;;3.55;1.98;;;;;;;25.14;53.34;99835.19;5011801;28;20053;-91
2022/06/18 06:35:05;;;;;;;2.45;1.83;;;;;;;25.18;51.81;99824.06;5011811;28;20147;-91
2022/06/18 06:37:31;;;;;;;3.25;2.28;;;;;;;25.62;51.10;99801.97;4993741;28;20034;-89
2022/06/18 06:39:56;;;;;;;2.83;2.08;;;;;;;26.12;49.85;99810.75;5011166;28;20056;-89
2022/06/18 06:42:22;;;;;;;3.03;1.83;;;;;;;26.39;47.65;99829.31;5011864;28;20030;-92
2022/06/18 06:44:48;;;;;;;3.75;2.25;;;;;;;26.51;49.14;99810.41;4993167;28;20432;-90
2022/06/18 06:47:14;;;;;;;4.00;2.72;;;;;;;26.29;48.22;99836.47;4993918;28;20026;-92
2022/06/18 06:49:40;;;;;;;2.53;1.95;;;;;;;26.26;49.46;99832.16;5011580;28;20026;-89
2022/06/18 06:52:05;;;;;;;2.30;1.67;;;;;;;26.09;47.80;99817.25;5011433;28;20040;-89
2022/06/18 06:54:31;;;;;;;2.50;1.95;;;;;;;26.14;49.15;99835.81;4993872;28;20034;-89
2022/06/18 06:59:40;;;;;;;3.23;2.40;;;;;;;25.91;49.89;99832.16;5011795;28;20041;-89
2022/06/18 07:02:15;;;;;;;3.03;2.22;;;;;;;25.72;49.59;99809.25;5010724;28;20029;-88
2022/06/18 07:04:40;;;;;;;2.97;2.33;;;;;;;25.98;50.75;99824.47;5011080;28;20092;-91
2022/06/18 07:07:06;;;;;;;3.95;3.00;;;;;;;25.70;49.21;99804.94;5010822;28;20034;-90
2022/06/18 07:09:31;;;;;;;3.55;2.67;;;;;;;25.92;46.88;99820.38;5010570;28;20076;-90
2022/06/18 07:11:57;;;;;;;3.28;2.00;;;;;;;25.86;49.80;99821.69;5011183;28;20030;-89
2022/06/18 07:14:22;;;;;;;2.90;1.90;;;;;;;26.00;47.54;99796.34;5010682;28;20495;-88
2022/06/18 07:16:50;;;;;;;2.63;1.52;;;;;;;26.22;47.63;99816.28;5010928;28;20034;-88
2022/06/18 07:19:16;;;;;;;2.80;1.92;;;;;;;26.31;47.69;99842.59;5011067;28;20022;-90
2022/06/18 07:21:42;;;;;;;4.50;2.50;;;;;;;26.12;47.72;99801.75;5010947;28;20507;-88
2022/06/18 07:24:07;;;;;;;2.88;1.70;;;;;;;26.91;44.46;99823.44;5011155;28;20026;-90
2022/06/18 07:26:33;;;;;;;4.47;2.30;;;;;;;26.84;45.09;99842.03;5011260;28;20132;-90
2022/06/18 07:28:58;;;;;;;3.22;2.72;;;;;;;26.93;44.78;99830.47;5010938;28;20038;-91
2022/06/18 07:31:32;;;;;;;6.22;3.72;;;;;;;27.26;43.94;99849.47;5010419;28;20038;-90
2022/06/18 07:33:59;;;;;;;3.67;2.53;;;;;;;27.70;44.97;99839.53;5011324;28;20030;-88
2022/06/18 07:36:26;;;;;;;3.15;2.22;;;;;;;27.87;42.55;99825.41;5010070;28;20046;-90
2022/06/18 07:38:51;;;;;;;3.92;2.17;;;;;;;27.71;41.54;99829.56;5011137;28;20092;-89
2022/06/18 07:41:19;;;;;;;3.53;2.33;;;;;;;28.03;42.46;99819.53;5011364;28;20038;-89
2022/06/18 07:43:49;;;;;;;4.28;2.25;;;;;;;28.77;41.04;99820.41;5010361;28;20030;-89
2022/06/18 07:46:15;;;;;;;4.90;1.92;;;;;;;29.14;40.53;99816.22;5011322;28;20403;-88
2022/06/18 07:48:42;;;;;;;2.65;1.80;;;;;;;29.52;39.18;99837.19;5010838;28;20026;-89
2022/06/18 07:51:08;;;;;;;2.90;2.25;;;;;;;29.05;39.68;99835.06;5010551;28;20026;-89
2022/06/18 07:53:34;;;;;;;3.92;2.60;;;;;;;29.77;41.93;99824.03;5010432;28;20419;-89
2022/06/18 07:56:00;;;;;;;3.50;2.65;;;;;;;30.25;39.84;99839.47;5011087;28;20180;-89
2022/06/18 07:58:26;;;;;;;10.85;2.65;;;;;;;29.57;39.12;99847.66;5010829;28;20029;-88
2022/06/18 08:00:52;;;;;;;3.00;1.85;;;;;;;29.66;39.65;99835.91;5011004;28;20098;-89
2022/06/18 08:03:18;;;;;;;3.38;2.10;;;;;;;29.11;40.49;99839.09;5011272;28;20041;-89
2022/06/18 08:05:45;;;;;;;3.50;2.00;;;;;;;29.44;39.98;99843.34;5010533;28;20038;-89
2022/06/18 08:08:12;;;;;;;3.55;2.00;;;;;;;29.22;39.34;99843.56;5011157;28;20026;-89
2022/06/18 08:10:40;;;;;;;4.70;1.83;;;;;;;28.87;41.07;99839.44;5010926;28;20083;-86
2022/06/18 08:13:06;;;;;;;3.28;1.98;;;;;;;28.24;40.80;99853.97;5010894;28;20059;-89
2022/06/18 08:15:32;;;;;;;2.80;2.15;;;;;;;28.02;42.16;99828.69;5010913;28;20115;-88
2022/06/18 08:17:58;;;;;;;2.58;1.83;;;;;;;27.82;43.14;99848.47;4992991;28;20412;-88
2022/06/18 08:20:25;;;;;;;2.55;1.92;;;;;;;27.81;43.04;99823.22;5010994;28;20037;-89
2022/06/18 08:22:55;;;;;;;2.60;1.73;;;;;;;27.73;43.27;99828.44;5011063;28;20040;-89
2022/06/18 08:25:23;;;;;;;3.13;2.00;;;;;;;27.84;43.36;99824.81;5010917;28;20174;-87
2022/06/18 08:27:51;;;;;;;3.95;2.92;;;;;;;27.87;43.79;99813.72;5010898;28;20034;-89
2022/06/18 08:30:17;;;;;;;6.18;4.43;;;;;;;28.27;44.72;99840.13;5010885;28;20562;-87
2022/06/18 08:32:44;;;;;;;4.20;3.38;;;;;;;28.63;43.25;99808.06;4996547;28;20026;-88
2022/06/18 08:35:10;;;;;;;4.97;3.63;;;;;;;28.84;44.69;99816.16;5014459;28;20054;-87
2022/06/18 08:37:36;;;;;;;4.20;2.53;;;;;;;28.92;41.77;99810.03;5013829;28;20069;-88
2022/06/18 08:40:34;;;;;;;3.70;2.42;;;;;;;29.04;41.32;99832.47;5014330;28;20033;-88
2022/06/18 08:43:13;;;;;;;3.13;2.35;;;;;;;28.79;41.40;99823.81;5013908;28;20125;-86
2022/06/18 08:45:47;;;;;;;2.47;1.98;;;;;;;28.68;41.53;99835.63;5013944;28;20577;-87
2022/06/18 08:48:47;;;;;;;4.22;2.28;;;;;;;28.42;42.71;99845.19;5014067;28;20515;-87
2022/06/18 08:51:28;;;;;;;3.30;1.98;;;;;;;28.79;41.46;99839.25;5013894;28;20538;-87
2022/06/18 08:54:09;;;;;;;4.18;2.50;;;;;;;28.92;40.25;99810.03;5013195;28;20117;-87
2022/06/18 08:57:17;;;;;;;3.20;2.42;;;;;;;29.30;39.02;99832.84;5013951;28;20100;-87
2022/06/18 09:00:30;;;;;;;3.97;2.22;;;;;;;29.02;40.50;99818.19;5013580;28;20562;-87
2022/06/18 09:02:59;;;;;;;;;;;;;;;29.04;42.18;99838.78;4996004;28;20103;-87
2022/06/18 09:05:49;;;;;;;5.13;3.22;;;;;;;29.09;42.51;99841.09;5013930;28;20410;-88
2022/06/18 09:08:35;;;;;;;4.95;2.47;;;;;;;28.67;44.10;99838.50;5012528;28;20048;-88
2022/06/18 09:11:29;;;;;;;4.45;3.03;;;;;;;28.84;43.84;99839.69;4992825;28;20416;-89
2022/06/18 09:14:01;;;;;;;;;;;;;;;29.34;45.08;99830.75;5010740;28;20056;-88
2022/06/18 09:16:39;;;;;;;;;;;;;;;29.23;44.06;99834.44;5013660;28;19921;-87
2022/06/18 09:19:07;;;;;;;;;;;;;;;28.14;43.33;99832.19;5013574;28;19914;-87
2022/06/18 09:21:33;;;;;;;;;;;;;;;27.77;46.22;99834.44;5013979;28;19925;-86
2022/06/18 09:24:00;;;;;;;;;;;;;;;27.49;46.10;99820.53;4995516;28;19918;-87
2022/06/18 09:26:36;;;;;;;;;;;;;;;28.04;45.88;99813.16;5013743;28;19913;-88
2022/06/18 09:29:08;;;;;;;;;;;;;;;28.24;44.00;99805.13;4995672;28;20378;-87
2022/06/18 09:31:41;;;;;;;;;;;;;;;28.69;42.94;99802.09;5013107;28;20350;-88
2022/06/18 09:34:32;;;;;;;;;;;;;;;28.85;43.48;99811.56;5011838;28;20310;-87
2022/06/18 09:37:02;;;;;;;;;;;;;;;28.42;43.97;99818.06;4997197;28;19972;-88
2022/06/18 09:39:34;;;;;;;;;;;;;;;28.46;42.37;99820.38;5013403;28;19914;-88
2022/06/18 09:42:02;;;;;;;;;;;;;;;28.69;42.79;99821.09;5013067;28;19959;-86
2022/06/18 09:44:40;;;;;;;;;;;;;;;28.90;42.32;99836.44;5012722;28;20473;-88
2022/06/18 09:47:27;;;;;;;;;;;;;;;28.66;43.34;99834.09;5013464;28;19925;-87
2022/06/18 09:49:52;;;;;;;;;;;;;;;29.33;42.66;99846.16;4995459;28;20330;-88
2022/06/18 09:52:31;;;;;;;;;;;;;;;29.75;40.37;99842.34;5013220;28;19919;-87
2022/06/18 09:54:58;;;;;;;;;;;;;;;29.12;41.36;99876.13;4995837;28;20303;-89
2022/06/18 09:57:29;;;;;;;;;;;;;;;27.02;43.71;99876.72;4995469;28;19960;-86
2022/06/18 10:00:05;;;;;;;;;;;;;;;26.03;46.60;99865.53;5013752;28;19957;-88
2022/06/18 10:02:31;;;;;;;;;;;;;;;25.25;45.99;99889.25;5012825;28;20387;-87
2022/06/18 10:07:44;;;;;;;;;;;;;;;24.41;44.97;99885.31;5013039;28;19940;-87
2022/06/18 10:10:14;;;;;;;;;;;;;;;24.10;42.15;99890.13;5012994;28;20397;-86
2022/06/18 10:12:42;;;;;;;;;;;;;;;23.60;48.88;99908.66;5012665;28;19909;-90
2022/06/18 10:15:09;;;;;;;;;;;;;;;23.15;56.02;99898.09;5012940;28;19917;-89
2022/06/18 10:17:43;;;;;;;;;;;;;;;21.82;62.24;99903.44;5013325;28;19936;-85
2022/06/18 10:20:08;;;;;;;;;;;;;;;20.90;68.95;99895.22;5012690;28;20011;-86
2022/06/18 10:22:41;;;;;;;;;;;;;;;20.20;69.70;99888.16;5013093;28;20016;-85
2022/06/18 10:25:06;;;;;;;;;;;;;;;19.57;73.11;99898.41;5012428;28;20438;-84
2022/06/18 10:27:37;;;;;;;;;;;;;;;19.41;73.35;99895.63;4994187;28;19925;-84
2022/06/18 10:30:06;;;;;;;;;;;;;;;19.39;74.54;99900.19;5011829;28;19976;-84
2022/06/18 10:32:50;;;;;;;;;;;;;;;19.49;75.23;99907.72;5012525;28;19924;-85
2022/06/18 10:35:16;;;;;;;;;;;;;;;19.77;75.62;99908.16;5012361;28;19940;-85
2022/06/18 10:37:47;;;;;;;;;;;;;;;20.03;75.73;99914.91;5011883;28;20364;-84
2022/06/18 10:40:31;;;;;;;;;;;;;;;20.18;74.18;99908.75;5012645;28;19913;-84
2022/06/18 10:42:56;;;;;;;;;;;;;;;20.35;72.42;99915.06;5012875;28;19909;-84
2022/06/18 10:45:25;;;;;;;;;;;;;;;20.51;71.53;99931.19;5012406;28;20387;-84
2022/06/18 10:47:52;;;;;;;;;;;;;;;20.43;74.15;99928.06;5011834;28;20383;-85
2022/06/18 10:50:19;;;;;;;;;;;;;;;20.46;74.13;99939.47;5011845;28;20474;-85
2022/06/18 10:52:44;;;;;;;;;;;;;;;20.52;75.97;99949.88;5012120;28;19915;-86
2022/06/18 10:55:18;;;;;;;;;;;;;;;20.80;75.70;99964.53;5009237;28;20008;-86
2022/06/18 10:57:44;;;;;;;;;;;;;;;20.78;74.14;99981.66;5012121;28;19917;-88
2022/06/18 11:00:25;;;;;;;;;;;;;;;21.24;73.45;99988.09;5011814;28;20383;-87
2022/06/18 11:03:01;;;;;;;;;;;;;;;21.54;74.22;100002.63;5011804;28;19964;-88
2022/06/18 11:05:35;;;;;;;;;;;;;;;21.09;75.74;100021.13;4997150;28;20364;-87
2022/06/18 11:08:03;;;;;;;;;;;;;;;20.64;77.68;100026.09;5012193;28;19913;-86
2022/06/18 11:10:43;;;;;;;;;;;;;;;20.38;80.70;100028.28;5010882;28;19921;-87
2022/06/18 11:13:18;;;;;;;;;;;;;;;20.17;79.74;100042.75;5011789;28;19920;-87
2022/06/18 11:15:44;;;;;;;;;;;;;;;20.09;80.20;100042.25;5011094;28;20483;-87
2022/06/18 11:18:20;;;;;;;;;;;;;;;20.00;79.96;100044.47;5011693;28;20020;-86
2022/06/18 11:20:57;;;;;;;;;;;;;;;20.37;79.22;100047.09;5011513;28;19935;-87
2022/06/18 11:23:22;;;;;;;;;;;;;;;20.41;76.52;100048.69;5011600;28;20429;-87
2022/06/18 11:25:52;;;;;;;;;;;;;;;20.58;76.62;100053.22;5011634;28;19913;-87
2022/06/18 11:28:23;;;;;;;;;;;;;;;20.99;74.58;100055.59;5011138;28;19940;-87
2022/06/18 11:30:50;;;;;;;;;;;;;;;21.10;74.04;100053.22;5011941;28;19986;-86
2022/06/18 11:33:36;;;;;;;;;;;;;;;21.02;74.66;100059.91;5011387;28;20009;-87
2022/06/18 11:36:09;;;;;;;;;;;;;;;21.08;74.08;100059.59;5011216;28;20004;-87
2022/06/18 11:38:35;;;;;;;;;;;;;;;20.99;74.61;100055.59;5011802;28;19920;-86
2022/06/18 11:41:08;;;;;;;;;;;;;;;20.82;76.40;100059.16;5012180;28;19913;-85
2022/06/18 11:43:50;;;;;;;;;;;;;;;21.27;74.54;100049.63;5010838;28;20415;-85
2022/06/18 11:46:24;;;;;;;;;;;;;;;21.25;74.28;100035.41;5011594;28;20004;-85
2022/06/18 11:48:49;;;;;;;;;;;;;;;21.29;75.01;100038.81;5011092;28;19917;-85
2022/06/18 11:51:24;;;;;;;;;;;;;;;21.34;75.90;100026.00;5010547;28;19914;-86
2022/06/18 11:54:10;;;;;;;;;;;;;;;21.23;76.88;100028.41;5011717;28;19920;-85
2022/06/18 11:56:52;;;;;;;;;;;;;;;21.45;75.11;100020.91;5010961;28;20366;-86
2022/06/18 11:59:17;;;;;;;;;;;;;;;21.53;74.43;100012.47;5010332;28;20472;-86
2022/06/18 12:01:52;;;;;;;;;;;;;;;21.31;74.72;100004.72;5010982;28;20019;-86
2022/06/18 12:04:22;;;;;;;;;;;;;;;21.24;77.05;99997.94;5011450;28;19913;-87
2022/06/18 12:06:50;;;;;;;;;;;;;;;21.39;74.67;99999.78;5015114;28;19944;-85
2022/06/18 12:09:17;;;;;;;;;;;;;;;21.25;73.08;99992.50;5015130;28;19913;-85
2022/06/18 12:12:01;;;;;;;;;;;;;;;21.05;74.20;99982.88;5015072;28;19932;-84
2022/06/18 12:14:29;;;;;;;;;;;;;;;20.93;76.29;99994.25;5014532;28;19925;-86
2022/06/18 12:17:02;;;;;;;;;;;;;;;21.06;75.97;99999.81;5015225;28;20296;-86